Renmark, Australia
Current Conditions -  °F | °C
As of 6:00 AM on Monday 26 Jan 2015 (Local Time) from YMIA Reporting Station
Clear Clear  
Wind Chill: 52°   Ceiling: Unl
Heat Index: 52°   Visibility: 6mi
Dew Point: 41°   Wind: 8mph
Humidity: 67%   Direction: 200°SSW
Pressure: 30"   Gusts: NA
Location:  34.17°S, 140.75°E
Report Text: YMIA 252000Z 20007KT CAVOK 11/05 Q1016
Loading
Personal Weather Stations






























Interactive Weather Map New forecast layout! Learn more

10-Day Weather Forecast

Advertisements
Track Severe Weather on mobile